Wartburg, Tennessee
Current Conditions -  °F | °C
As of 11:53 AM on Friday 24 Oct 2014 (Local Time) from KOQT Reporting Station
Clear Clear  
Wind Chill: 59°   Ceiling: Unl
Heat Index: 59°   Visibility: 10mi
Dew Point: 45°   Wind: 5mph
Humidity: 60%   Direction: 130°SE
Pressure: 30.13"   Gusts: NA
Location:  36.1°N, 84.6°W
Report Text: KOQT 241553Z AUTO 13004KT 10SM CLR 15/07 A3013 RMK AO2 SLP203 T01500072
Loading
Personal Weather Stations






























Interactive Weather Map New forecast layout! Learn more

10-Day Weather Forecast

Advertisements
Track Severe Weather on mobile